sensor_id;sensor_type;location;lat;lon;timestamp;pressure;altitude;pressure_sealevel;temperature;humidity
15750;BME280;7976;52.526;13.326;2023-11-19T19:48:02;100162.66;;;10.10;100.00
15750;BME280;7976;52.526;13.326;2023-11-19T19:50:29;100161.56;;;10.16;100.00
15750;BME280;7976;52.526;13.326;2023-11-19T19:52:57;100160.44;;;10.21;100.00
15750;BME280;7976;52.526;13.326;2023-11-19T19:55:23;100166.31;;;10.26;100.00
15750;BME280;7976;52.526;13.326;2023-11-19T19:57:51;100170.47;;;10.30;100.00
15750;BME280;7976;52.526;13.326;2023-11-19T20:00:18;100163.47;;;10.31;100.00
15750;BME280;7976;52.526;13.326;2023-11-19T20:02:45;100158.09;;;10.34;100.00
15750;BME280;7976;52.526;13.326;2023-11-19T20:05:13;100164.97;;;10.36;100.00
15750;BME280;7976;52.526;13.326;2023-11-19T20:07:41;100166.66;;;10.37;100.00
15750;BME280;7976;52.526;13.326;2023-11-19T20:10:10;100166.44;;;10.42;100.00
15750;BME280;7976;52.526;13.326;2023-11-19T20:12:38;100159.44;;;10.42;100.00
15750;BME280;7976;52.526;13.326;2023-11-19T20:15:06;100163.56;;;10.48;100.00
15750;BME280;7976;52.526;13.326;2023-11-19T20:17:35;100163.47;;;10.49;100.00
15750;BME280;7976;52.526;13.326;2023-11-19T20:20:04;100156.59;;;10.47;100.00
15750;BME280;7976;52.526;13.326;2023-11-19T20:22:33;100160.94;;;10.48;100.00
15750;BME280;7976;52.526;13.326;2023-11-19T20:25:00;100165.38;;;10.46;100.00
15750;BME280;7976;52.526;13.326;2023-11-19T20:27:27;100164.34;;;10.50;100.00
15750;BME280;7976;52.526;13.326;2023-11-19T20:29:55;100163.41;;;10.51;100.00
15750;BME280;7976;52.526;13.326;2023-11-19T20:32:21;100164.13;;;10.54;100.00
15750;BME280;7976;52.526;13.326;2023-11-19T20:34:49;100166.81;;;10.53;100.00
15750;BME280;7976;52.526;13.326;2023-11-19T20:37:17;100170.97;;;10.57;100.00
15750;BME280;7976;52.526;13.326;2023-11-19T20:39:45;100168.41;;;10.55;100.00
15750;BME280;7976;52.526;13.326;2023-11-19T20:42:12;100168.34;;;10.57;100.00
15750;BME280;7976;52.526;13.326;2023-11-19T20:44:39;100176.25;;;10.55;100.00
15750;BME280;7976;52.526;13.326;2023-11-19T20:47:08;100172.53;;;10.61;100.00
15750;BME280;7976;52.526;13.326;2023-11-19T20:49:35;100176.00;;;10.61;100.00
15750;BME280;7976;52.526;13.326;2023-11-19T20:52:02;100172.53;;;10.61;100.00
15750;BME280;7976;52.526;13.326;2023-11-19T20:54:29;100174.34;;;10.59;100.00
15750;BME280;7976;52.526;13.326;2023-11-19T20:56:57;100177.91;;;10.58;100.00
15750;BME280;7976;52.526;13.326;2023-11-19T20:59:25;100184.13;;;10.55;100.00
15750;BME280;7976;52.526;13.326;2023-11-19T21:01:52;100179.66;;;10.57;100.00
15750;BME280;7976;52.526;13.326;2023-11-19T21:04:19;100176.97;;;10.59;100.00
15750;BME280;7976;52.526;13.326;2023-11-19T21:06:46;100180.53;;;10.58;100.00
15750;BME280;7976;52.526;13.326;2023-11-19T21:09:13;100174.50;;;10.56;100.00
15750;BME280;7976;52.526;13.326;2023-11-19T21:11:41;100182.44;;;10.54;100.00
15750;BME280;7976;52.526;13.326;2023-11-19T21:14:10;100174.66;;;10.53;100.00
15750;BME280;7976;52.526;13.326;2023-11-19T21:16:37;100191.22;;;10.53;100.00
15750;BME280;7976;52.526;13.326;2023-11-19T21:19:04;100189.56;;;10.51;100.00
15750;BME280;7976;52.526;13.326;2023-11-19T21:21:31;100185.28;;;10.50;100.00
15750;BME280;7976;52.526;13.326;2023-11-19T21:23:58;100182.66;;;10.50;100.00
15750;BME280;7976;52.526;13.326;2023-11-19T21:26:25;100180.03;;;10.50;100.00
15750;BME280;7976;52.526;13.326;2023-11-19T21:28:52;100180.94;;;10.49;100.00
15750;BME280;7976;52.526;13.326;2023-11-19T21:31:21;100182.66;;;10.50;100.00
15750;BME280;7976;52.526;13.326;2023-11-19T21:33:48;100176.72;;;10.46;100.00
15750;BME280;7976;52.526;13.326;2023-11-19T21:36:15;100183.41;;;10.52;100.00
15750;BME280;7976;52.526;13.326;2023-11-19T21:38:42;100179.03;;;10.52;100.00
15750;BME280;7976;52.526;13.326;2023-11-19T21:41:09;100177.28;;;10.53;100.00
15750;BME280;7976;52.526;13.326;2023-11-19T21:43:36;100183.41;;;10.52;100.00
15750;BME280;7976;52.526;13.326;2023-11-19T21:46:03;100172.19;;;10.50;100.00
15750;BME280;7976;52.526;13.326;2023-11-19T21:48:32;100175.50;;;10.53;100.00
15750;BME280;7976;52.526;13.326;2023-11-19T21:51:03;100172.03;;;10.53;100.00
15750;BME280;7976;52.526;13.326;2023-11-19T21:53:30;100182.50;;;10.53;100.00
15750;BME280;7976;52.526;13.326;2023-11-19T21:55:57;100180.03;;;10.50;100.00
15750;BME280;7976;52.526;13.326;2023-11-19T21:58:24;100174.88;;;10.48;100.00
15750;BME280;7976;52.526;13.326;2023-11-19T22:00:51;100175.84;;;10.46;100.00
15750;BME280;7976;52.526;13.326;2023-11-19T22:03:18;100178.47;;;10.46;100.00
15750;BME280;7976;52.526;13.326;2023-11-19T22:05:47;100175.06;;;10.44;100.00
15750;BME280;7976;52.526;13.326;2023-11-19T22:08:13;100173.38;;;10.43;100.00
15750;BME280;7976;52.526;13.326;2023-11-19T22:10:41;100163.78;;;10.43;100.00
15750;BME280;7976;52.526;13.326;2023-11-19T22:13:08;100169.91;;;10.42;100.00
15750;BME280;7976;52.526;13.326;2023-11-19T22:15:35;100172.59;;;10.41;100.00
15750;BME280;7976;52.526;13.326;2023-11-19T22:18:01;100167.38;;;10.41;100.00
15750;BME280;7976;52.526;13.326;2023-11-19T22:20:28;100176.97;;;10.40;100.00
15750;BME280;7976;52.526;13.326;2023-11-19T22:22:57;100177.84;;;10.41;100.00
15750;BME280;7976;52.526;13.326;2023-11-19T22:25:24;100177.69;;;10.44;100.00
15750;BME280;7976;52.526;13.326;2023-11-19T22:27:52;100177.69;;;10.44;100.00
15750;BME280;7976;52.526;13.326;2023-11-19T22:30:19;100176.16;;;10.40;100.00
15750;BME280;7976;52.526;13.326;2023-11-19T22:32:47;100176.84;;;10.43;100.00
15750;BME280;7976;52.526;13.326;2023-11-19T22:35:14;100171.66;;;10.42;100.00
15750;BME280;7976;52.526;13.326;2023-11-19T22:37:41;100164.41;;;10.48;100.00
15750;BME280;7976;52.526;13.326;2023-11-19T22:40:11;100172.19;;;10.50;100.00
15750;BME280;7976;52.526;13.326;2023-11-19T22:42:38;100177.28;;;10.53;100.00
15750;BME280;7976;52.526;13.326;2023-11-19T22:45:07;100177.28;;;10.53;100.00
15750;BME280;7976;52.526;13.326;2023-11-19T22:47:34;100166.09;;;10.49;100.00
15750;BME280;7976;52.526;13.326;2023-11-19T22:50:01;100186.03;;;10.52;100.00
15750;BME280;7976;52.526;13.326;2023-11-19T22:52:29;100178.13;;;10.53;100.00
15750;BME280;7976;52.526;13.326;2023-11-19T22:54:56;100176.41;;;10.52;100.00
15750;BME280;7976;52.526;13.326;2023-11-19T22:57:25;100171.03;;;10.55;100.00
15750;BME280;7976;52.526;13.326;2023-11-19T22:59:52;100169.28;;;10.56;100.00
15750;BME280;7976;52.526;13.326;2023-11-19T23:02:19;100170.06;;;10.58;100.00
15750;BME280;7976;52.526;13.326;2023-11-19T23:04:46;100173.47;;;10.60;100.00
15750;BME280;7976;52.526;13.326;2023-11-19T23:07:13;100168.06;;;10.63;100.00
15750;BME280;7976;52.526;13.326;2023-11-19T23:09:40;100167.16;;;10.64;100.00
15750;BME280;7976;52.526;13.326;2023-11-19T23:12:07;100162.00;;;10.62;100.00
15750;BME280;7976;52.526;13.326;2023-11-19T23:14:37;100156.75;;;10.62;100.00
15750;BME280;7976;52.526;13.326;2023-11-19T23:17:04;100158.50;;;10.62;100.00
15750;BME280;7976;52.526;13.326;2023-11-19T23:19:33;100166.25;;;10.65;100.00
15750;BME280;7976;52.526;13.326;2023-11-19T23:22:00;100161.75;;;10.67;100.00
15750;BME280;7976;52.526;13.326;2023-11-19T23:24:27;100160.09;;;10.66;100.00
15750;BME280;7976;52.526;13.326;2023-11-19T23:26:55;100161.84;;;10.65;100.00
15750;BME280;7976;52.526;13.326;2023-11-19T23:29:24;100166.09;;;10.68;100.00
15750;BME280;7976;52.526;13.326;2023-11-19T23:31:52;100170.41;;;10.69;100.00
15750;BME280;7976;52.526;13.326;2023-11-19T23:34:19;100164.25;;;10.70;100.00
15750;BME280;7976;52.526;13.326;2023-11-19T23:36:48;100167.78;;;10.69;100.00
15750;BME280;7976;52.526;13.326;2023-11-19T23:39:15;100172.81;;;10.73;100.00
15750;BME280;7976;52.526;13.326;2023-11-19T23:41:42;100164.97;;;10.73;100.00
15750;BME280;7976;52.526;13.326;2023-11-19T23:44:09;100162.28;;;10.75;100.00
15750;BME280;7976;52.526;13.326;2023-11-19T23:46:36;100168.34;;;10.75;100.00
15750;BME280;7976;52.526;13.326;2023-11-19T23:49:05;100169.19;;;10.76;100.00
15750;BME280;7976;52.526;13.326;2023-11-19T23:51:32;100152.63;;;10.75;100.00
15750;BME280;7976;52.526;13.326;2023-11-19T23:53:58;100165.66;;;10.77;100.00
15750;BME280;7976;52.526;13.326;2023-11-19T23:56:26;100170.06;;;10.76;100.00
15750;BME280;7976;52.526;13.326;2023-11-19T23:58:53;100153.66;;;10.73;100.00
